Trenton, NJ

6:40 PM EST on November 25, 2014 (GMT -0500)
Northeast Philadelphia | Change Station
CLOSE
Current Station
Airport
Location: Northeast Philadelphia,
Elevation: 121 ft
Nearby Weather Stations
Active Advisory: Winter Weather Advisory

Elev 121 ft 40.08 °N, 75.01 °W | Updated 46 minutes ago

Partly Cloudy
Partly Cloudy
50 °F
Feels Like 50 °F
N
4
Wind Variable Wind from SW

Today
High -- | Low -- °F
--% Chance of Precip.
Yesterday
High -- | Low -- °F
Precip. -- in
6:55 AM 4:35 PM
Waxing Crescent, 14% visible
Pressure 30.08 in
Visibility 10.0 miles
Clouds Clear
Dew Point 28 °F
Humidity 43%
Rainfall 0.00 in
Snow Depth Not available.
UV 0 out of 12
Pollen .10 out of 12
Air Quality Not available.
Flu Activity Not available.
METAR KPNE 252254Z AUTO 23003KT 10SM CLR 10/M02 A3008 RMK AO2 SLP186 T01001022 TSNO $

More Conditions Fewer Conditions

Pressure 30.08 in
Visibility 10.0 miles
Clouds Clear
Dew Point 28 °F
Humidity 43%
Rainfall 0.00 in
Snow Depth Not available.
UV 0 out of 12
Pollen .10 out of 12
Air Quality Not available.
Flu Activity Not available.
METAR KPNE 252254Z AUTO 23003KT 10SM CLR 10/M02 A3008 RMK AO2 SLP186 T01001022 TSNO $

More Conditions Fewer Conditions

10-Day Weather Forecast

Almanac

Astronomy

Nov. 25, 2014 Rise Set
Actual Time
Civil Twilight
Nautical Twilight
Astronomical Twilight
Moon
Length of Visible Light
Length of Day
Tomorrow will be .
, % of the Moon is Illuminated

Today's Extremes

State Highs State Lows

Community

WunderPhotos

Upload Photos

1,773,624 photos uploaded!

WunderBlogs® & News

Nearby

Air Quality

  Air Quality AQ Index Pollutant
Not available.

Snow Depth

Station Depth Elevation

Earthquake Activity

City Distance Mag. Time & Date
Minimum magnitude displayed is 2.5.

Coastal Water Temperatures

Place Temperature

Nearby Weather Stations